Time;durP1;ratioP1;P1;durP2;ratioP2;P2;SDS_P1;SDS_P2;PMS_P1;PMS_P2;Temp;Humidity;BMP_temperature;BMP_pressure;BME280_temperature;BME280_humidity;BME280_pressure;Samples;Min_cycle;Max_cycle;Signal;HPM_P1;HPM_P2
2022/05/22 00:01:21;;;;;;;0.88;0.88;;;;;;;17.04;52.18;101311.59;5148786;28;20034;-86
2022/05/22 00:03:52;;;;;;;0.40;0.40;;;;;;;17.08;52.32;101307.03;5161373;28;20026;-87
2022/05/22 00:06:23;;;;;;;0.73;0.73;;;;;;;17.09;51.94;101308.75;5161649;28;20096;-87
2022/05/22 00:08:53;;;;;;;0.70;0.70;;;;;;;17.08;52.12;101307.03;5158216;28;20048;-87
2022/05/22 00:11:24;;;;;;;5.68;2.05;;;;;;;17.05;52.21;101301.88;5182843;28;20034;-87
2022/05/22 00:13:55;;;;;;;0.68;0.68;;;;;;;17.03;52.64;101315.19;5145995;28;20328;-86
2022/05/22 00:16:37;;;;;;;1.48;1.38;;;;;;;16.95;52.21;101315.53;5161583;28;20033;-87
2022/05/22 00:19:10;;;;;;;0.67;0.67;;;;;;;16.91;52.43;101311.25;5128816;28;20514;-87
2022/05/22 00:21:42;;;;;;;0.68;0.68;;;;;;;16.88;52.38;101315.84;5148555;28;20025;-85
2022/05/22 00:24:13;;;;;;;0.30;0.30;;;;;;;16.87;52.52;101309.69;5181141;28;20188;-85
2022/05/22 00:26:44;;;;;;;0.85;0.85;;;;;;;16.89;52.55;101286.63;5163587;28;20112;-85
2022/05/22 00:29:19;;;;;;;1.27;1.25;;;;;;;16.84;52.42;101276.25;5160477;28;20045;-86
2022/05/22 00:31:50;;;;;;;8.52;1.10;;;;;;;16.77;52.74;101273.91;5145681;28;20479;-86
2022/05/22 00:34:20;;;;;;;2.05;1.13;;;;;;;16.80;52.98;101271.13;5168751;28;20077;-86
2022/05/22 00:36:51;;;;;;;0.77;0.77;;;;;;;16.77;52.60;101255.38;5140864;28;20172;-86
2022/05/22 00:39:21;;;;;;;0.70;0.70;;;;;;;16.72;53.37;101258.22;5162681;28;20056;-86
2022/05/22 00:41:55;;;;;;;0.57;0.57;;;;;;;16.73;52.96;101265.25;5170136;28;20169;-86
2022/05/22 00:44:25;;;;;;;2.63;1.42;;;;;;;16.71;52.71;101272.38;5146593;28;20124;-86
2022/05/22 00:46:56;;;;;;;0.63;0.63;;;;;;;16.68;52.84;101272.53;5160249;28;20116;-85
2022/05/22 00:49:30;;;;;;;0.57;0.57;;;;;;;16.67;53.28;101286.72;5159452;28;20220;-88
2022/05/22 00:52:13;;;;;;;0.80;0.80;;;;;;;16.67;53.05;101281.41;5144324;28;20045;-85
2022/05/22 00:54:59;;;;;;;2.42;1.23;;;;;;;16.59;52.91;101278.25;5162236;28;20072;-85
2022/05/22 00:57:43;;;;;;;1.27;1.17;;;;;;;16.58;53.31;101276.53;5139589;28;20299;-86
2022/05/22 01:00:23;;;;;;;0.82;0.80;;;;;;;16.54;53.23;101275.78;5124481;28;20393;-86
2022/05/22 01:05:46;;;;;;;0.60;0.60;;;;;;;16.49;53.20;101275.13;5158586;28;20030;-86
2022/05/22 01:08:18;;;;;;;0.82;0.82;;;;;;;16.41;53.57;101274.59;5141960;28;20060;-86
2022/05/22 01:10:58;;;;;;;1.75;0.57;;;;;;;16.39;53.17;101273.81;5154577;28;20042;-86
2022/05/22 01:13:36;;;;;;;0.80;0.80;;;;;;;16.35;53.28;101270.44;5145212;28;20124;-86
2022/05/22 01:16:07;;;;;;;1.20;1.10;;;;;;;16.30;53.62;101278.56;5153395;28;20042;-86
2022/05/22 01:18:44;;;;;;;0.40;0.40;;;;;;;16.28;53.44;101279.56;5160997;28;20045;-85
2022/05/22 01:21:19;;;;;;;0.80;0.50;;;;;;;16.29;53.39;101276.84;5125227;28;20061;-86
2022/05/22 01:23:51;;;;;;;17.63;1.80;;;;;;;16.23;53.43;101274.47;5178163;28;20064;-86
2022/05/22 01:26:23;;;;;;;0.50;0.50;;;;;;;16.26;53.45;101268.16;5155296;28;20054;-86
2022/05/22 01:28:54;;;;;;;2.08;1.88;;;;;;;16.23;53.74;101277.13;5142981;28;20262;-86
2022/05/22 01:31:24;;;;;;;0.30;0.30;;;;;;;16.19;53.56;101275.50;5161683;28;20026;-86
2022/05/22 01:33:55;;;;;;;1.10;0.93;;;;;;;16.14;53.59;101270.41;5178881;28;20494;-86
2022/05/22 01:36:26;;;;;;;0.95;0.95;;;;;;;16.11;53.71;101264.38;5161652;28;20030;-86
2022/05/22 01:38:58;;;;;;;0.82;0.82;;;;;;;16.09;53.65;101260.91;5141530;28;20121;-85
2022/05/22 01:41:29;;;;;;;2.60;1.45;;;;;;;16.06;53.59;101261.91;5160633;28;20118;-86
2022/05/22 01:43:59;;;;;;;8.15;1.17;;;;;;;16.00;54.16;101267.47;5128847;28;20033;-86
2022/05/22 01:46:30;;;;;;;0.38;0.38;;;;;;;16.04;53.77;101279.63;5158383;28;20621;-86
2022/05/22 01:49:01;;;;;;;0.50;0.50;;;;;;;16.04;53.96;101277.88;5174677;28;20092;-85
2022/05/22 01:51:35;;;;;;;0.65;0.65;;;;;;;15.98;53.73;101264.91;5161182;28;20172;-86
2022/05/22 01:54:08;;;;;;;0.90;0.90;;;;;;;15.94;53.98;101254.50;5158501;28;20098;-85
2022/05/22 01:56:39;;;;;;;2.83;1.10;;;;;;;15.90;53.67;101259.06;5184489;28;20068;-87
2022/05/22 01:59:10;;;;;;;3.13;0.95;;;;;;;15.89;53.84;101252.03;5143563;28;20026;-86
2022/05/22 02:01:40;;;;;;;0.35;0.35;;;;;;;15.83;54.00;101241.66;5186032;28;20021;-87
2022/05/22 02:04:11;;;;;;;1.15;1.15;;;;;;;15.79;53.89;101253.28;5177347;28;20041;-87
2022/05/22 02:08:19;;;;;;;0.82;0.82;;;;;;;15.77;53.81;101252.50;5152978;28;20022;-87
2022/05/22 02:09:32;;;;;;;0.75;0.75;;;;;;;15.72;54.25;101245.63;5134071;28;20038;-87
2022/05/22 02:12:02;;;;;;;1.10;1.00;;;;;;;15.66;54.40;101261.72;5150027;28;20526;-87
2022/05/22 02:14:33;;;;;;;0.80;0.80;;;;;;;15.67;53.97;101259.94;5127837;28;20445;-87
2022/05/22 02:17:04;;;;;;;0.65;0.65;;;;;;;15.59;54.65;101249.66;5124392;28;20527;-87
2022/05/22 02:19:34;;;;;;;0.60;0.60;;;;;;;15.57;54.59;101247.06;5141818;28;20409;-87
2022/05/22 02:22:04;;;;;;;0.73;0.73;;;;;;;15.56;53.96;101233.94;5145007;28;20041;-87
2022/05/22 02:24:35;;;;;;;0.30;0.30;;;;;;;15.53;54.37;101218.16;5159681;28;20041;-86
2022/05/22 02:27:09;;;;;;;0.98;0.98;;;;;;;15.54;54.19;101219.91;5154735;28;20264;-87
2022/05/22 02:29:39;;;;;;;1.63;1.52;;;;;;;15.50;53.94;101224.44;5158215;28;20527;-84
2022/05/22 02:32:09;;;;;;;1.15;1.08;;;;;;;15.41;54.53;101220.38;5160801;28;20029;-86
2022/05/22 02:34:40;;;;;;;0.63;0.63;;;;;;;15.39;54.86;101213.41;5159721;28;20037;-85
2022/05/22 02:37:10;;;;;;;1.00;0.90;;;;;;;15.44;54.46;101211.47;5158226;28;20531;-86
2022/05/22 02:39:41;;;;;;;3.53;1.00;;;;;;;15.47;54.83;101207.84;5159014;28;20534;-86
2022/05/22 02:42:11;;;;;;;0.45;0.45;;;;;;;15.41;54.71;101201.84;5156174;28;20034;-86
2022/05/22 02:44:41;;;;;;;0.65;0.65;;;;;;;15.36;54.61;101201.19;5142035;28;20038;-86
2022/05/22 02:47:12;;;;;;;3.80;1.20;;;;;;;15.32;54.92;101210.19;5118974;28;20018;-86
2022/05/22 02:49:42;;;;;;;0.60;0.60;;;;;;;15.33;54.72;101211.88;5143067;28;20105;-86
2022/05/22 02:52:13;;;;;;;1.40;1.30;;;;;;;15.24;55.20;101206.97;5143652;28;20080;-86
2022/05/22 02:54:43;;;;;;;6.43;1.42;;;;;;;15.26;54.89;101205.09;5144528;28;20033;-86
2022/05/22 02:57:16;;;;;;;0.95;0.75;;;;;;;15.20;54.89;101200.06;5154890;28;20137;-86
2022/05/22 02:59:50;;;;;;;9.82;1.50;;;;;;;15.20;54.68;101190.38;5129949;28;20136;-86
2022/05/22 03:02:23;;;;;;;1.20;1.10;;;;;;;15.19;54.74;101187.78;5159272;28;20427;-87
2022/05/22 03:04:54;;;;;;;0.45;0.45;;;;;;;15.16;54.89;101182.63;5135015;28;20041;-85
2022/05/22 03:07:25;;;;;;;0.63;0.63;;;;;;;15.19;55.13;101190.41;5145575;28;20084;-86
2022/05/22 03:09:55;;;;;;;0.73;0.73;;;;;;;15.16;54.98;101182.63;5160431;28;20034;-86
2022/05/22 03:12:25;;;;;;;0.88;0.88;;;;;;;15.15;55.13;101183.53;5176956;28;20041;-86
2022/05/22 03:14:58;;;;;;;0.65;0.65;;;;;;;15.08;55.23;101178.47;5142557;28;20041;-86
2022/05/22 03:17:28;;;;;;;0.60;0.60;;;;;;;15.09;55.07;101182.84;5142602;28;20084;-86
2022/05/22 03:19:59;;;;;;;0.77;0.77;;;;;;;15.07;55.09;101184.69;5143105;28;20459;-85
2022/05/22 03:22:29;;;;;;;8.45;2.20;;;;;;;15.07;55.12;101186.47;5178190;28;20025;-85
2022/05/22 03:25:04;;;;;;;;;;;;;;;15.09;55.47;101185.47;5142414;28;20042;-85
2022/05/22 03:27:35;;;;;;;0.43;0.43;;;;;;;15.03;55.25;101180.44;5140435;28;20202;-85
2022/05/22 03:30:06;;;;;;;0.77;0.77;;;;;;;15.03;55.58;101177.78;5143292;28;20042;-85
2022/05/22 03:32:37;;;;;;;0.50;0.50;;;;;;;15.06;55.74;101176.81;5169285;28;20038;-86
2022/05/22 03:35:07;;;;;;;13.20;2.17;;;;;;;15.01;55.76;101176.97;5158967;28;20555;-86
2022/05/22 03:37:41;;;;;;;1.13;1.02;;;;;;;15.00;55.81;101169.97;5153143;28;20424;-84
2022/05/22 03:40:13;;;;;;;13.57;1.05;;;;;;;15.00;55.92;101166.47;5192270;28;20026;-85
2022/05/22 03:42:43;;;;;;;0.82;0.63;;;;;;;14.97;56.01;101164.81;5181325;28;20018;-86
2022/05/22 03:45:14;;;;;;;0.63;0.63;;;;;;;14.93;55.94;101166.72;5144465;28;20072;-86
2022/05/22 03:47:44;;;;;;;0.88;0.88;;;;;;;14.93;56.03;101172.00;5157329;28;20588;-87
2022/05/22 03:50:15;;;;;;;1.45;1.20;;;;;;;14.92;56.11;101169.41;5160613;28;20113;-85
2022/05/22 03:52:48;;;;;;;1.27;1.05;;;;;;;14.93;56.46;101172.00;5161784;28;20064;-85
2022/05/22 03:55:19;;;;;;;;;;;;;;;14.92;56.45;101174.69;5146673;28;20037;-86
2022/05/22 03:57:50;;;;;;;1.33;1.05;;;;;;;14.89;56.47;101165.09;5148910;28;19918;-86
2022/05/22 04:00:24;;;;;;;1.40;1.23;;;;;;;14.89;56.33;101169.53;5152550;28;20146;-86
2022/05/22 04:02:54;;;;;;;1.33;0.60;;;;;;;14.82;56.57;101160.97;5147512;28;20076;-86
2022/05/22 04:05:25;;;;;;;1.42;1.33;;;;;;;14.83;56.23;101161.84;5126050;28;20117;-86
2022/05/22 04:07:55;;;;;;;1.15;0.75;;;;;;;14.82;56.50;101155.69;5147105;28;20129;-86
2022/05/22 04:10:26;;;;;;;2.00;1.23;;;;;;;14.84;56.63;101153.88;5158365;28;20121;-85
2022/05/22 04:12:57;;;;;;;0.60;0.60;;;;;;;14.81;56.78;101158.41;5152274;28;20037;-86
2022/05/22 04:15:27;;;;;;;0.73;0.73;;;;;;;14.82;56.91;101153.06;5164587;28;20030;-85
2022/05/22 04:17:57;;;;;;;1.02;1.02;;;;;;;14.85;56.83;101152.06;5185493;28;20064;-85
2022/05/22 04:20:28;;;;;;;1.58;1.27;;;;;;;14.84;56.62;101153.88;5188490;28;20059;-85
2022/05/22 04:25:58;;;;;;;2.15;1.25;;;;;;;14.85;56.82;101152.06;5161373;28;20034;-85
2022/05/22 04:28:29;;;;;;;0.43;0.43;;;;;;;14.88;57.05;101159.88;5130334;28;20510;-85
2022/05/22 04:31:00;;;;;;;1.17;1.05;;;;;;;14.86;56.95;101154.69;5146282;28;20057;-85
2022/05/22 04:33:32;;;;;;;0.50;0.50;;;;;;;14.85;57.01;101155.59;5165718;28;20033;-84
2022/05/22 04:36:04;;;;;;;0.52;0.52;;;;;;;14.87;57.29;101153.75;5161738;28;20033;-86
2022/05/22 04:38:34;;;;;;;1.17;0.93;;;;;;;14.93;57.43;101155.28;5161979;28;20030;-85
2022/05/22 04:41:05;;;;;;;1.38;1.27;;;;;;;14.92;57.59;101157.06;5162429;28;20046;-85
2022/05/22 04:43:35;;;;;;;1.40;1.35;;;;;;;14.93;57.45;101161.44;5163496;28;20551;-86
2022/05/22 04:46:08;;;;;;;1.50;1.40;;;;;;;14.92;57.65;101157.06;5160680;28;20097;-85
2022/05/22 04:48:41;;;;;;;1.80;1.48;;;;;;;14.95;57.45;101167.53;5159174;28;20459;-84
2022/05/22 04:51:11;;;;;;;0.95;0.95;;;;;;;14.96;57.32;101168.38;5162193;28;20298;-86
2022/05/22 04:53:42;;;;;;;2.10;1.30;;;;;;;14.93;57.96;101165.84;5162517;28;20044;-85
2022/05/22 04:56:12;;;;;;;1.20;1.10;;;;;;;14.99;57.70;101167.41;5160391;28;20073;-85
2022/05/22 04:58:43;;;;;;;2.08;1.25;;;;;;;15.02;57.79;101168.13;5168182;28;20048;-85
2022/05/22 05:01:14;;;;;;;1.00;1.00;;;;;;;15.03;58.01;101164.59;5178899;28;20487;-85
2022/05/22 05:03:45;;;;;;;0.40;0.40;;;;;;;14.98;60.31;101166.56;5161555;28;20455;-85
2022/05/22 05:06:16;;;;;;;1.50;0.95;;;;;;;14.97;59.59;101164.81;5138599;28;20039;-84
2022/05/22 05:08:46;;;;;;;0.60;0.60;;;;;;;15.00;60.10;101172.63;5134153;28;20033;-85
2022/05/22 05:11:17;;;;;;;0.88;0.88;;;;;;;15.04;58.89;101168.94;5144210;28;20411;-86
2022/05/22 05:13:47;;;;;;;0.50;0.50;;;;;;;15.08;58.80;101162.59;5161999;28;20030;-86
2022/05/22 05:16:22;;;;;;;0.30;0.30;;;;;;;15.09;58.66;101161.69;5141761;28;20127;-86
2022/05/22 05:18:52;;;;;;;0.40;0.40;;;;;;;15.07;60.37;101167.97;5143398;28;20030;-86
2022/05/22 05:21:22;;;;;;;8.52;1.75;;;;;;;15.06;59.10;101159.19;5141538;28;20089;-86
2022/05/22 05:23:55;;;;;;;1.85;1.35;;;;;;;15.10;58.75;101158.13;5159205;28;20034;-87
2022/05/22 05:26:26;;;;;;;3.05;2.78;;;;;;;15.14;58.83;101168.59;5125951;28;20038;-86
2022/05/22 05:28:56;;;;;;;0.75;0.75;;;;;;;15.01;63.01;101158.50;5156708;28;20046;-86
2022/05/22 05:31:27;;;;;;;1.20;1.13;;;;;;;15.12;59.97;101158.09;5156091;28;20026;-85
2022/05/22 05:33:57;;;;;;;7.60;1.25;;;;;;;15.18;59.32;101149.03;5160663;28;20153;-85
2022/05/22 05:36:28;;;;;;;1.55;1.15;;;;;;;15.20;59.17;101156.00;5156234;28;20038;-86
2022/05/22 05:38:58;;;;;;;0.73;0.73;;;;;;;15.21;61.36;101141.00;5140508;28;20116;-86
2022/05/22 05:41:28;;;;;;;1.80;1.70;;;;;;;15.23;59.35;101145.28;5161125;28;20026;-86
2022/05/22 05:44:01;;;;;;;1.10;1.10;;;;;;;15.28;59.54;101139.81;5128687;28;20053;-86
2022/05/22 05:46:36;;;;;;;3.00;2.03;;;;;;;15.33;59.90;101147.56;5159176;28;20030;-86
2022/05/22 05:49:08;;;;;;;1.63;1.52;;;;;;;15.30;59.19;101150.31;5120572;28;20138;-88
2022/05/22 05:51:38;;;;;;;1.13;1.05;;;;;;;15.35;60.27;101151.88;5144222;28;20040;-85
2022/05/22 05:54:09;;;;;;;0.63;0.63;;;;;;;15.42;59.42;101148.06;5161710;28;20565;-85
2022/05/22 05:56:40;;;;;;;0.95;0.95;;;;;;;15.35;62.00;101151.88;5140661;28;20058;-85
2022/05/22 05:59:11;;;;;;;1.17;1.08;;;;;;;15.41;59.91;101150.78;5162924;28;20124;-84
2022/05/22 06:01:42;;;;;;;0.50;0.50;;;;;;;15.43;60.08;101149.78;5170516;28;20215;-85
2022/05/22 06:04:12;;;;;;;1.02;1.02;;;;;;;15.39;60.53;101145.56;5138503;28;20030;-86
2022/05/22 06:06:43;;;;;;;0.73;0.57;;;;;;;15.41;61.75;101156.06;5150792;28;20044;-86
2022/05/22 06:09:14;;;;;;;8.30;1.42;;;;;;;15.48;60.46;101146.09;5145024;28;20073;-84
2022/05/22 06:11:44;;;;;;;1.55;1.30;;;;;;;15.36;63.28;101145.66;5129808;28;20080;-86
2022/05/22 06:14:16;;;;;;;0.82;0.82;;;;;;;15.48;60.17;101146.09;5145198;28;20030;-85
2022/05/22 06:16:47;;;;;;;4.25;1.75;;;;;;;15.53;59.53;101145.00;5161083;28;20092;-87
2022/05/22 06:19:53;;;;;;;1.45;1.35;;;;;;;15.52;59.83;101147.69;5160165;28;20034;-86
2022/05/22 06:22:14;;;;;;;0.50;0.50;;;;;;;15.56;59.46;101146.66;5163303;28;20029;-86
2022/05/22 06:24:44;;;;;;;0.55;0.55;;;;;;;15.58;59.54;101152.72;5158796;28;20100;-86
2022/05/22 06:27:15;;;;;;;0.93;0.93;;;;;;;15.58;59.68;101158.00;5174366;28;20026;-85
2022/05/22 06:29:46;;;;;;;2.08;1.42;;;;;;;15.60;60.90;101153.53;5162192;28;20459;-87
2022/05/22 06:32:19;;;;;;;1.08;1.08;;;;;;;15.68;60.51;101147.91;5165151;28;20357;-86
2022/05/22 06:34:50;;;;;;;1.33;1.23;;;;;;;15.69;59.49;101150.50;5159375;28;20052;-86
2022/05/22 06:37:22;;;;;;;2.45;1.50;;;;;;;15.71;59.19;101151.31;5152941;28;20038;-85
2022/05/22 06:39:53;;;;;;;1.23;0.90;;;;;;;15.72;59.39;101155.66;5159060;28;20042;-86
2022/05/22 06:42:29;;;;;;;1.35;1.25;;;;;;;15.78;59.39;101153.69;5159374;28;20395;-86
2022/05/22 06:45:28;;;;;;;0.80;0.73;;;;;;;15.78;59.30;101148.38;5158383;28;20388;-86
2022/05/22 06:47:59;;;;;;;0.52;0.52;;;;;;;15.78;59.23;101151.91;5136738;28;20136;-85
2022/05/22 06:50:29;;;;;;;1.10;1.08;;;;;;;15.79;59.28;101145.66;5142717;28;20618;-85
2022/05/22 06:53:00;;;;;;;1.15;1.05;;;;;;;15.85;59.31;101145.47;5153712;28;20038;-85
2022/05/22 06:55:33;;;;;;;1.35;1.25;;;;;;;15.88;59.22;101147.13;5159181;28;20034;-85
2022/05/22 06:58:04;;;;;;;0.40;0.40;;;;;;;15.87;59.19;101142.75;5158992;28;20045;-85
2022/05/22 07:00:35;;;;;;;4.53;1.35;;;;;;;15.89;61.01;101141.75;5158904;28;20048;-85
2022/05/22 07:03:07;;;;;;;0.55;0.55;;;;;;;15.98;59.12;101145.81;5161045;28;20037;-86
2022/05/22 07:05:37;;;;;;;0.73;0.73;;;;;;;16.05;59.00;101141.09;5157320;28;20553;-85
2022/05/22 07:08:08;;;;;;;1.85;1.40;;;;;;;16.09;59.06;101136.50;5153315;28;20030;-86
2022/05/22 07:13:28;;;;;;;1.25;1.13;;;;;;;16.20;59.18;101135.13;5178127;28;20373;-85
2022/05/22 07:16:00;;;;;;;2.38;1.77;;;;;;;16.22;59.27;101137.72;5158429;28;20034;-86
2022/05/22 07:18:32;;;;;;;1.27;1.17;;;;;;;16.21;59.24;101136.00;5155848;28;20042;-86
2022/05/22 07:21:02;;;;;;;1.85;1.10;;;;;;;16.25;60.35;101136.72;5158946;28;20034;-85
2022/05/22 07:23:32;;;;;;;1.58;1.48;;;;;;;16.32;59.70;101138.16;5161048;28;20065;-86
2022/05/22 07:26:05;;;;;;;0.82;0.80;;;;;;;16.42;59.41;101135.94;5170423;28;20060;-86
2022/05/22 07:28:35;;;;;;;0.80;0.80;;;;;;;16.44;59.11;101140.28;5162202;28;20465;-86
2022/05/22 07:31:16;;;;;;;1.17;1.10;;;;;;;16.43;59.16;101132.38;5127532;28;20046;-86
2022/05/22 07:33:47;;;;;;;4.22;1.95;;;;;;;16.50;59.13;101136.47;5132314;28;20034;-86
2022/05/22 07:36:19;;;;;;;1.85;0.70;;;;;;;16.41;61.49;101126.28;5162702;28;20411;-86
2022/05/22 07:38:50;;;;;;;5.60;2.50;;;;;;;16.48;59.55;101119.81;5162562;28;20045;-87
2022/05/22 07:41:23;;;;;;;4.07;1.10;;;;;;;16.49;60.14;101124.13;5146132;28;20451;-88
2022/05/22 07:43:53;;;;;;;2.95;1.15;;;;;;;16.44;60.32;101129.69;5161713;28;20467;-87
2022/05/22 07:46:25;;;;;;;1.25;1.15;;;;;;;16.51;59.55;101124.94;5161386;28;20021;-87
2022/05/22 07:48:55;;;;;;;0.68;0.68;;;;;;;16.58;59.17;101122.88;5160431;28;20033;-87
2022/05/22 07:51:26;;;;;;;0.80;0.80;;;;;;;16.57;59.62;101126.44;5170940;28;20033;-87
2022/05/22 07:53:56;;;;;;;0.90;0.90;;;;;;;16.55;59.58;101123.88;5156511;28;20033;-88
2022/05/22 07:56:27;;;;;;;2.13;1.92;;;;;;;16.59;59.70;101130.75;5146649;28;20018;-87
2022/05/22 07:58:57;;;;;;;3.70;1.15;;;;;;;16.59;59.77;101124.59;5159506;28;20077;-87
2022/05/22 08:01:28;;;;;;;0.73;0.73;;;;;;;16.55;60.09;101137.13;5163875;28;20034;-87
2022/05/22 08:04:01;;;;;;;1.00;1.00;;;;;;;16.66;59.02;101124.22;5128603;28;20042;-86
2022/05/22 08:06:33;;;;;;;1.38;1.20;;;;;;;16.73;59.38;101122.16;5164391;28;20580;-87
2022/05/22 08:09:06;;;;;;;0.40;0.40;;;;;;;16.71;59.37;101113.41;5146612;28;20044;-88
2022/05/22 08:11:37;;;;;;;0.63;0.60;;;;;;;16.68;58.52;101116.22;5168475;28;20030;-87
2022/05/22 08:14:07;;;;;;;0.30;0.30;;;;;;;16.83;58.21;101112.84;5164144;28;20511;-86
2022/05/22 08:16:38;;;;;;;10.48;1.30;;;;;;;16.84;58.28;101105.75;5125401;28;20404;-87
2022/05/22 08:19:08;;;;;;;0.88;0.85;;;;;;;16.84;58.16;101103.09;5157078;28;20034;-87
2022/05/22 08:21:39;;;;;;;0.55;0.38;;;;;;;16.91;57.98;101093.94;5148004;28;20038;-87
2022/05/22 08:24:09;;;;;;;1.02;1.02;;;;;;;16.90;58.09;101089.56;5147295;28;20172;-87
2022/05/22 08:26:40;;;;;;;0.40;0.40;;;;;;;16.99;57.85;101088.31;5163759;28;20484;-88
2022/05/22 08:29:10;;;;;;;2.28;1.02;;;;;;;17.08;58.25;101094.94;5159910;28;20415;-87
2022/05/22 08:31:41;;;;;;;3.35;2.03;;;;;;;17.04;59.38;101090.72;5165914;28;20502;-87
2022/05/22 08:34:13;;;;;;;3.80;0.47;;;;;;;17.08;59.10;101089.63;5159096;28;20041;-87
2022/05/22 08:36:45;;;;;;;5.07;2.42;;;;;;;17.20;58.72;101085.53;5128384;28;20084;-87
2022/05/22 08:39:15;;;;;;;1.15;0.95;;;;;;;17.20;58.68;101088.19;5158891;28;20037;-86
2022/05/22 08:41:49;;;;;;;1.42;1.33;;;;;;;17.23;59.38;101077.44;5146294;28;20026;-86
2022/05/22 08:44:21;;;;;;;0.30;0.30;;;;;;;17.25;58.96;101071.13;5128360;28;20188;-87
2022/05/22 08:47:03;;;;;;;2.92;2.40;;;;;;;17.33;59.52;101068.09;5141485;28;20045;-88
2022/05/22 08:49:46;;;;;;;1.45;1.35;;;;;;;17.40;59.80;101068.63;5158853;28;20037;-87
2022/05/22 08:52:28;;;;;;;12.67;2.43;;;;;;;17.44;60.14;101067.53;5150913;28;20096;-90
2022/05/22 08:55:07;;;;;;;1.20;1.10;;;;;;;17.47;59.74;101056.78;5148677;28;20034;-88
2022/05/22 09:00:55;;;;;;;0.93;0.90;;;;;;;17.54;59.42;101044.94;5144391;28;20490;-88
2022/05/22 09:03:32;;;;;;;0.60;0.60;;;;;;;17.62;59.04;101040.09;5162956;28;20664;-87
2022/05/22 09:06:05;;;;;;;0.57;0.57;;;;;;;17.70;58.91;101033.53;5143545;28;20551;-88
2022/05/22 09:08:50;;;;;;;2.60;0.50;;;;;;;18.00;58.82;101035.50;5164475;28;20056;-86
2022/05/22 09:11:38;;;;;;;0.65;0.65;;;;;;;17.83;58.40;101036.38;5142747;28;20034;-87
2022/05/22 09:14:18;;;;;;;1.58;1.13;;;;;;;17.96;58.33;101040.13;5145137;28;20042;-87
2022/05/22 09:16:51;;;;;;;1.48;1.38;;;;;;;17.82;57.39;101040.81;5131188;28;20374;-87
2022/05/22 09:19:26;;;;;;;0.85;0.85;;;;;;;17.89;58.37;101039.56;5169309;28;20152;-86
2022/05/22 09:22:12;;;;;;;0.88;0.88;;;;;;;18.03;57.95;101035.38;5146206;28;20034;-88
2022/05/22 09:25:01;;;;;;;2.38;1.80;;;;;;;18.09;57.91;101027.94;5161399;28;20113;-87
2022/05/22 09:27:44;;;;;;;2.15;1.55;;;;;;;18.13;58.24;101022.44;5160353;28;20032;-87
2022/05/22 09:30:33;;;;;;;3.92;0.75;;;;;;;18.34;57.57;101018.63;5147164;28;20518;-88
2022/05/22 09:33:14;;;;;;;1.20;0.98;;;;;;;18.37;57.23;101017.59;5127437;28;20084;-87
2022/05/22 09:36:09;;;;;;;0.57;0.57;;;;;;;18.43;56.72;101017.25;5156004;28;20121;-85
2022/05/22 09:38:45;;;;;;;0.75;0.75;;;;;;;18.43;57.25;101014.59;5157455;28;20052;-87
2022/05/22 09:41:33;;;;;;;0.70;0.70;;;;;;;18.50;57.17;101017.78;5159286;28;20046;-87
2022/05/22 09:44:06;;;;;;;0.35;0.35;;;;;;;18.58;56.73;101009.34;5180295;28;20034;-87
2022/05/22 09:47:07;;;;;;;0.80;0.80;;;;;;;18.74;56.41;101014.69;5145857;28;20025;-87
2022/05/22 09:49:57;;;;;;;4.07;2.08;;;;;;;18.77;56.47;101015.34;5144343;28;20046;-88
2022/05/22 09:52:58;;;;;;;0.43;0.43;;;;;;;18.74;56.60;101010.22;5163615;28;20539;-87
2022/05/22 09:55:45;;;;;;;0.50;0.50;;;;;;;18.97;55.14;101010.72;5143054;28;20284;-87
2022/05/22 09:58:30;;;;;;;3.20;2.17;;;;;;;19.00;54.04;101005.22;5159711;28;20038;-85
2022/05/22 10:01:07;;;;;;;0.93;0.77;;;;;;;18.95;55.00;100996.66;5161149;28;20400;-86
2022/05/22 10:03:49;;;;;;;0.75;0.75;;;;;;;18.99;55.19;101000.84;5167993;28;20045;-86
2022/05/22 10:06:29;;;;;;;1.40;1.33;;;;;;;19.01;54.60;101013.09;5183199;28;20042;-86
2022/05/22 10:09:18;;;;;;;0.88;0.88;;;;;;;19.01;54.67;101012.25;5166242;28;20111;-87
2022/05/22 10:12:19;;;;;;;7.07;1.38;;;;;;;18.98;55.01;101018.63;5154509;28;20117;-88
2022/05/22 10:14:53;;;;;;;0.40;0.40;;;;;;;19.02;54.24;101016.63;5161559;28;20058;-87
2022/05/22 10:17:29;;;;;;;0.70;0.70;;;;;;;19.03;53.62;101016.53;5145010;28;20070;-87
2022/05/22 10:20:19;;;;;;;0.50;0.50;;;;;;;19.09;54.43;101011.84;5166974;28;20096;-87
2022/05/22 10:23:06;;;;;;;0.57;0.57;;;;;;;19.12;54.58;101007.19;5160699;28;20038;-87
2022/05/22 10:25:55;;;;;;;1.15;1.05;;;;;;;19.10;54.96;101009.06;5146339;28;20048;-87
2022/05/22 10:28:37;;;;;;;3.90;1.52;;;;;;;19.25;53.37;101003.78;5146261;28;20089;-87
2022/05/22 10:31:20;;;;;;;0.80;0.80;;;;;;;19.44;52.21;101004.41;5145913;28;20045;-87
2022/05/22 10:34:08;;;;;;;1.38;0.63;;;;;;;19.23;53.39;101000.34;5146208;28;20396;-87
2022/05/22 10:36:43;;;;;;;2.05;1.45;;;;;;;19.49;52.60;100994.34;5129045;28;20134;-87
2022/05/22 10:39:15;;;;;;;2.53;1.48;;;;;;;19.38;52.68;101001.25;5129023;28;20053;-88
2022/05/22 10:44:45;;;;;;;0.57;0.57;;;;;;;19.25;52.95;100994.03;5162125;28;20056;-88
2022/05/22 10:47:26;;;;;;;1.02;0.90;;;;;;;19.18;52.73;100985.53;5160845;28;20030;-87
2022/05/22 10:49:59;;;;;;;0.40;0.40;;;;;;;19.04;50.04;100985.50;5161644;28;20199;-88
2022/05/22 10:52:34;;;;;;;1.60;1.25;;;;;;;19.01;50.36;100983.00;5149746;28;20242;-89
2022/05/22 10:55:18;;;;;;;1.10;0.98;;;;;;;19.22;51.60;100977.34;5148390;28;20038;-91
2022/05/22 10:58:02;;;;;;;;;;;;;;;19.30;51.04;100975.09;5128031;28;20109;-89
2022/05/22 11:00:34;;;;;;;18.63;1.88;;;;;;;19.39;51.72;100963.91;5144313;28;19921;-90
2022/05/22 11:03:15;;;;;;;0.90;0.60;;;;;;;19.46;51.95;100962.59;5130028;28;20415;-91
2022/05/22 11:05:51;;;;;;;0.50;0.50;;;;;;;19.39;50.73;100953.25;5137515;28;21925;-91
2022/05/22 11:08:31;;;;;;;1.08;0.80;;;;;;;19.48;52.35;100943.88;5163104;28;20052;-91
2022/05/22 11:11:24;;;;;;;0.65;0.65;;;;;;;19.55;51.83;100939.00;5130407;28;20492;-93
2022/05/22 11:14:22;;;;;;;0.68;0.68;;;;;;;19.74;49.80;100938.75;5158973;28;20523;-91
2022/05/22 11:16:53;;;;;;;0.57;0.47;;;;;;;19.70;48.67;100940.75;5124156;28;20232;-92
2022/05/22 11:19:25;;;;;;;0.77;0.60;;;;;;;19.72;49.10;100933.50;5143732;28;20498;-92
2022/05/22 11:22:03;;;;;;;0.40;0.40;;;;;;;19.75;50.20;100928.00;5125983;28;20125;-90
2022/05/22 11:24:33;;;;;;;0.80;0.65;;;;;;;19.78;47.58;100914.50;5139041;28;20042;-87
2022/05/22 11:27:18;;;;;;;0.90;0.90;;;;;;;19.87;47.99;100906.94;5140265;28;20617;-89
2022/05/22 11:30:19;;;;;;;5.88;1.85;;;;;;;20.01;46.85;100912.22;5128254;28;20037;-88
2022/05/22 11:33:05;;;;;;;1.52;1.15;;;;;;;20.17;48.88;100911.22;5163292;28;20125;-88
2022/05/22 11:36:02;;;;;;;0.65;0.65;;;;;;;20.16;49.66;100904.19;5134993;28;20084;-89
2022/05/22 11:38:47;;;;;;;0.60;0.60;;;;;;;20.33;49.74;100889.78;5161274;28;20038;-88
2022/05/22 11:42:10;;;;;;;0.47;0.47;;;;;;;20.36;50.67;100895.78;5157384;28;20041;-88
2022/05/22 11:44:41;;;;;;;0.70;0.70;;;;;;;20.56;49.73;100888.25;5124442;28;20116;-87
2022/05/22 11:47:27;;;;;;;20.08;15.93;;;;;;;20.57;48.93;100892.63;5148142;28;20402;-87
2022/05/22 11:50:06;;;;;;;12.15;6.93;;;;;;;20.63;48.38;100886.88;5160274;28;20042;-88
2022/05/22 11:52:55;;;;;;;18.77;12.65;;;;;;;20.80;49.16;100891.13;5160673;28;20128;-87
2022/05/22 11:55:29;;;;;;;48.20;34.08;;;;;;;20.95;48.41;100891.03;5159161;28;20042;-86
2022/05/22 11:58:18;;;;;;;27.58;24.42;;;;;;;21.05;48.48;100884.94;5142488;28;20058;-87
2022/05/22 12:01:15;;;;;;;33.13;28.02;;;;;;;21.09;47.83;100888.25;5142351;28;20052;-87
2022/05/22 12:04:02;;;;;;;4.72;3.28;;;;;;;21.15;48.60;100879.84;5161312;28;20037;-87
2022/05/22 12:06:58;;;;;;;10.45;8.68;;;;;;;21.29;48.49;100876.19;5138976;28;20256;-87
2022/05/22 12:09:57;;;;;;;3.85;3.60;;;;;;;21.33;47.27;100864.38;5163632;28;20076;-88
2022/05/22 12:12:37;;;;;;;0.80;0.80;;;;;;;21.45;47.60;100857.31;5119142;28;20457;-92
2022/05/22 12:15:38;;;;;;;0.95;0.77;;;;;;;21.51;46.96;100850.69;5146911;28;20045;-91